Main page
METAR-TAF:

METAR-TAF

Airports :

Faleolo International Airport

Apia, Upolu, Samoa

latitude: 13-49S, longitude: 172-00W, elevation: 5 m

Current weather observation

The report was made 45 minutes ago, at 21:00 UTC
Calm wind
Temperature 29°C
Humidity 84%
Pressure 1014 hPa
Visibility 10 km or more
Few clouds at a height of 2400 ft

METAR: NSFA 022100Z 00000KT 9999 FEW024 29/26 Q1014 RMK NIL

Time: 10:45 (21:45 UTC)

Forecast

The report was made 4 hours and 41 minutes ago, at 17:04 UTC
Forecast valid from 02 at 18 UTC to 03 at 18 UTC
Wind 5 kt from the East/Southeast
Visibility 10 km or more
Scattered clouds at a height of 2000 ft
Probability 40% :
Temporary
from 03 at 00 UTC to 03 at 06 UTC
Visibility: 5000 m
Broken clouds at a height of 1500 ft
Few clouds at a height of 2000 ft, Cumulonimbus.
thunderstorm, rain

TAF: NSFA 021704Z 0218/0318 12005KT 9999 SCT020 PROB40 TEMPO 0300/0306 5000 TSRA BKN015 FEW020CB

Weather observations and forecasts of more than 4000 airports (METAR and TAF reports).

The available stations are represented by yellow and red dots on the map.

Hover mouse over dot to see the name of the station.

Then click to see weather observations and forecasts.

To change the map : click on the green buttons with a black cross to zoom in, on the green button with a dash to zoom out, or on the green arrows for adjacent maps.


METAR-TAF: